KBNA/BNA METAR and TAF weather

Enter ICAO airport designator
Station Type Date Time Source
KBNA METAR 2020/09/19 04:53 UTC NOAA

KBNA 190453Z 02008KT 10SM BKN250 16/09 A3021 RMK AO2 SLP225 T01560089


Station Type Date Time Source
KBNA Decoded METAR 2020/09/19 04:53 UTC NOAA

NASHVILLE INTERNATIONAL AIRPORT, TN, United States (KBNA) 36-07N 086-41W 210M
Sep 19, 2020 - 12:53 AM EDT / 2020.09.19 0453 UTC
Wind: from the NNE (020 degrees) at 9 MPH (8 KT):0
Visibility: 10 mile(s):0
Sky conditions: mostly cloudy
Temperature: 60.1 F (15.6 C)
Dew Point: 48.0 F (8.9 C)
Relative Humidity: 64%
Pressure (altimeter): 30.21 in. Hg (1023 hPa)
ob: KBNA 190453Z 02008KT 10SM BKN250 16/09 A3021 RMK AO2 SLP225 T01560089
cycle: 5

Station Type Date Time Source
KBNA TAF 2020/09/18 18:36 UTC NOAA

TAF KBNA 181734Z 1818/1918 03012G20KT P6SM SCT025 BKN250
FM190300 02009KT P6SM BKN250
FM191500 04008KT P6SM FEW250

Example: see airport list